Latest Coastal Weather Observations for Low Head

IDV60701

Issued at 8:41 pm EDT Friday 19 January 2018 (issued every 10 minutes, with the page automatically refreshed every 10 minutes)

About coastal observations | Map of coastal stations | Coastal observations for VIC | Marine services | Other Formats
Station Details ID: 091293 Name: LOW HEAD Lat: -41.05 Lon: 146.79 Height: 3.0 m
Data from the previous 72 hours. | See also: Recent months at Low Head
Date/Time
EDT
Temp
°C
Wind Pressure Rain since
9am
mm
Weather Cloud Vis
km
Sea
Height
m
Swell
Dir  Spd
kts
Gust
kts
hPa Trend Height
m
Period
s
Dir
19/08:30pm 20.6 ENE 21 25 1010.6 - 0.0 - - - - - - -
19/08:00pm 20.7 ENE 21 24 1009.9 - 0.0 - - - - - - -
19/07:30pm 21.0 ENE 14 17 1009.2 - 0.0 - - - - - - -
19/07:00pm 21.1 NE 11 11 1009.1 - 0.0 - - - - - - -
19/06:30pm 21.4 NE 8 10 1009.1 - 0.0 - - - - - - -
19/06:00pm 21.4 N 7 9 1009.3 - 0.0 - - - - - - -
19/05:30pm 21.4 N 6 7 1009.4 - 0.0 - - - - - - -
19/05:00pm 21.4 N 5 6 1009.2 - 0.0 - - - - - - -
19/04:30pm 22.0 NNE 3 4 1009.3 - 0.0 - - - - - - -
19/04:00pm 21.7 N 6 6 1009.1 - 0.0 - - - - - - -
19/03:30pm 22.4 N 6 7 1009.4 - 0.0 - - - - - - -
19/03:00pm 22.5 N 7 8 1009.0 - 0.0 - - - - - - -
19/02:30pm 23.3 NNW 6 7 1009.1 - 0.0 - - - - - - -
19/02:00pm 23.6 NNW 6 7 1009.1 - 0.0 - - - - - - -
19/01:30pm 23.3 NNW 4 5 1009.2 - 0.0 - - - - - - -
19/01:00pm 23.6 NW 5 6 1009.3 - 0.0 - - - - - - -
19/12:30pm 24.2 NW 7 8 1009.8 - 0.0 - - - - - - -
19/12:00pm 22.8 NNW 5 7 1009.5 - 0.0 - - - - - - -
19/11:30am 22.0 N 7 7 1009.5 - 0.0 - - - - - - -
19/11:00am 21.8 N 7 7 1009.5 - 0.0 - - - - - - -
19/10:30am 21.2 N 7 9 1009.5 - 0.0 - - - - - - -
19/10:00am 21.0 N 5 7 1009.6 - 0.0 - - - - - - -
19/09:30am 20.1 N 5 6 1009.4 - 0.0 - - - - - - -
19/09:00am 20.0 NNW 4 5 1009.5 - 0.0 - - - - - - -
19/08:30am 19.5 CALM 0 0 1009.5 - 0.0 - - - - - - -
19/08:00am 18.7 SSE 3 5 1009.2 - 0.0 - - - - - - -
19/07:30am 17.3 S 7 7 1008.9 - 0.0 - - - - - - -
19/07:00am 16.4 SSE 7 9 1008.7 - 0.0 - - - - - - -
19/06:30am 16.1 SSE 7 8 1008.6 - 0.0 - - - - - - -
19/06:00am 16.0 SSE 8 10 1008.6 - 0.0 - - - - - - -
19/05:30am 15.9 SSE 9 10 1008.1 - 0.0 - - - - - - -
19/05:00am 16.1 SSE 9 10 1008.2 - 0.0 - - - - - - -
19/04:30am 16.3 SSE 8 10 1008.4 - 0.0 - - - - - - -
19/04:00am 16.4 SSE 8 9 1008.6 - 0.0 - - - - - - -
19/03:30am 16.4 SSE 8 10 1008.8 - 0.0 - - - - - - -
19/03:00am 16.9 SSE 8 10 1009.3 - 0.0 - - - - - - -
19/02:30am 16.8 SSE 8 9 1009.9 - 0.0 - - - - - - -
19/02:00am 16.9 SSE 8 9 1010.2 - 0.0 - - - - - - -
19/01:30am 17.2 SSE 8 9 1010.5 - 0.0 - - - - - - -
19/01:00am 17.3 SSE 7 9 1010.8 - 0.0 - - - - - - -
19/12:30am 17.8 SE 6 8 1010.9 - 0.0 - - - - - - -
19/12:00am 17.9 SE 6 8 1011.0 - 0.0 - - - - - - -
 
Date/Time
EDT
Temp
°C
Wind Pressure Rain since
9am
mm
Weather Cloud Vis
km
Sea
Height
m
Swell
Dir  Spd
kts
Gust
kts
hPa Trend Height
m
Period
s
Dir
18/11:30pm 18.0 ESE 9 11 1010.9 - 0.0 - - - - - - -
18/11:00pm 18.2 E 6 9 1011.3 - 0.0 - - - - - - -
18/10:30pm 19.0 E 7 8 1011.5 - 0.0 - - - - - - -
18/10:00pm 19.4 ENE 7 8 1011.5 - 0.0 - - - - - - -
18/09:30pm 19.6 ENE 7 8 1011.5 - 0.0 - - - - - - -
18/09:00pm 19.8 ENE 9 10 1011.2 - 0.0 - - - - - - -
18/08:30pm 20.0 NE 9 10 1011.2 - 0.0 - - - - - - -
18/08:00pm 20.0 NE 9 10 1011.1 - 0.0 - - - - - - -
18/07:30pm 20.4 NE 9 10 1011.3 - 0.0 - - - - - - -
18/07:00pm 20.5 NE 8 9 1011.4 - 0.0 - - - - - - -
18/06:30pm 20.9 NE 10 11 1011.5 - 0.0 - - - - - - -
18/06:00pm 20.9 NE 10 11 1011.6 - 0.0 - - - - - - -
18/05:30pm 20.9 NE 11 11 1012.0 - 0.0 - - - - - - -
18/05:00pm 21.3 NE 11 12 1012.4 - 0.0 - - - - - - -
18/04:30pm 21.5 NE 11 11 1012.8 - 0.0 - - - - - - -
18/04:00pm 21.2 NE 10 11 1013.1 - 0.0 - - - - - - -
18/03:30pm 21.2 NE 11 13 1013.4 - 0.0 - - - - - - -
18/03:00pm 21.2 NE 11 13 1013.7 - 0.0 - - - - - - -
18/02:30pm 21.3 NE 12 14 1014.0 - 0.0 - - - - - - -
18/02:00pm 21.3 NE 11 14 1014.2 - 0.0 - - - - - - -
18/01:30pm 21.1 NE 12 14 1014.7 - 0.0 - - - - - - -
18/01:00pm 20.9 NE 11 13 1015.2 - 0.0 - - - - - - -
18/12:30pm 21.0 NE 10 11 1015.2 - 0.0 - - - - - - -
18/12:00pm 20.8 NE 9 10 1015.6 - 0.0 - - - - - - -
18/11:30am 20.5 NNE 7 7 1015.8 - 0.0 - - - - - - -
18/11:00am 19.9 NNE 7 9 1016.0 - 0.0 - - - - - - -
18/10:30am 20.4 NNE 4 6 1016.3 - 0.0 - - - - - - -
18/10:00am 19.9 SSE 5 7 1016.5 - 0.0 - - - - - - -
18/09:30am 19.1 S 8 9 1016.9 - 0.0 - - - - - - -
18/09:00am 19.0 SSE 6 13 1016.9 - 0.0 - - - - - - -
18/08:30am 18.6 SE 5 7 1016.8 - 0.0 - - - - - - -
18/08:00am 17.6 SE 4 7 1016.7 - 0.0 - - - - - - -
18/07:30am 15.8 SSE 5 6 1016.5 - 0.0 - - - - - - -
18/07:00am 15.0 SSE 6 8 1016.5 - 0.0 - - - - - - -
18/06:30am 14.6 SSE 7 7 1016.7 - 0.0 - - - - - - -
18/06:00am 14.6 SSE 6 7 1016.7 - 0.0 - - - - - - -
18/05:30am 14.4 SE 6 7 1016.4 - 0.0 - - - - - - -
18/05:00am 14.5 SE 6 8 1016.2 - 0.0 - - - - - - -
18/04:30am 14.7 SE 5 7 1016.2 - 0.0 - - - - - - -
18/04:00am 15.1 ESE 7 9 1016.5 - 0.0 - - - - - - -
18/03:30am 15.0 ESE 6 7 1016.7 - 0.0 - - - - - - -
18/03:00am 15.5 ESE 5 7 1016.9 - 0.0 - - - - - - -
18/02:30am 15.2 SE 6 7 1017.1 - 0.0 - - - - - - -
18/02:00am 15.4 ESE 6 8 1017.2 - 0.0 - - - - - - -
18/01:30am 15.2 E 7 9 1017.3 - 0.0 - - - - - - -
18/01:00am 15.3 E 7 8 1017.4 - 0.0 - - - - - - -
18/12:30am 16.2 E 7 8 1017.6 - 0.0 - - - - - - -
18/12:00am 16.0 E 8 8 1017.6 - 0.0 - - - - - - -
 
Date/Time
EDT
Temp
°C
Wind Pressure Rain since
9am
mm
Weather Cloud Vis
km
Sea
Height
m
Swell
Dir  Spd
kts
Gust
kts
hPa Trend Height
m
Period
s
Dir
17/11:30pm 16.1 E 7 9 1017.6 - 0.0 - - - - - - -
17/11:00pm 17.5 NE 7 9 1017.9 - 0.0 - - - - - - -
17/10:30pm 18.1 NNE 8 10 1017.7 - 0.0 - - - - - - -
17/10:00pm 18.2 NNE 9 11 1017.4 - 0.0 - - - - - - -
17/09:30pm 18.2 NNE 8 9 1017.3 - 0.0 - - - - - - -
17/09:00pm 18.3 NNE 7 8 1017.2 - 0.0 - - - - - - -
17/08:30pm 18.7 N 5 6 1017.3 - 0.0 - - - - - - -
17/08:00pm 18.6 NNW 5 6 1017.3 - 0.0 - - - - - - -
17/07:30pm 19.3 NW 5 7 1017.1 - 0.0 - - - - - - -
17/07:00pm 19.9 NW 8 9 1016.9 - 0.0 - - - - - - -
17/06:30pm 20.2 NW 8 9 1016.8 - 0.0 - - - - - - -
17/06:00pm 20.4 NW 10 11 1017.0 - 0.0 - - - - - - -
17/05:30pm 20.8 NW 11 12 1017.3 - 0.0 - - - - - - -
17/05:00pm 21.2 NW 11 12 1017.6 - 0.0 - - - - - - -
17/04:30pm 21.1 NW 11 13 1017.7 - 0.0 - - - - - - -
17/04:00pm 20.2 NW 11 13 1017.7 - 0.0 - - - - - - -
17/03:30pm 21.0 NW 13 15 1018.0 - 0.0 - - - - - - -
17/03:00pm 19.8 NW 12 14 1018.4 - 0.0 - - - - - - -
17/02:30pm 20.2 NW 12 14 1018.5 - 0.0 - - - - - - -
17/02:00pm 20.6 NW 12 14 1018.8 - 0.0 - - - - - - -
17/01:30pm 20.7 NW 11 13 1019.1 - 0.0 - - - - - - -
17/01:00pm 20.5 NW 12 14 1019.3 - 0.0 - - - - - - -
17/12:30pm 20.4 NW 11 12 1019.6 - 0.0 - - - - - - -
17/12:00pm 20.0 NW 11 13 1019.7 - 0.0 - - - - - - -
17/11:30am 19.9 NW 10 11 1019.9 - 0.0 - - - - - - -
17/11:00am 20.0 WNW 9 11 1020.2 - 0.0 - - - - - - -
17/10:30am 19.0 WNW 10 13 1020.4 - 0.0 - - - - - - -
17/10:00am 18.4 WNW 9 10 1020.5 - 0.0 - - - - - - -
17/09:30am 17.8 NW 10 11 1020.6 - 0.0 - - - - - - -
17/09:00am 17.6 WNW 9 11 1020.9 - 0.0 - - - - - - -
17/08:30am 17.3 NW 8 9 1020.7 - 0.0 - - - - - - -
17/08:00am 17.2 NW 8 9 1020.5 - 0.0 - - - - - - -
17/07:30am 17.0 NW 9 11 1020.3 - 0.0 - - - - - - -
17/07:00am 17.0 NW 10 12 1020.3 - 0.0 - - - - - - -
17/06:30am 16.8 NW 7 11 1020.3 - 0.0 - - - - - - -
17/06:00am 16.8 NW 7 9 1020.2 - 0.0 - - - - - - -
17/05:30am 16.9 WNW 7 9 1020.1 - 0.0 - - - - - - -
17/05:00am 16.8 WNW 7 9 1019.9 - 0.0 - - - - - - -
17/04:30am 16.8 WNW 5 6 1019.8 - 0.0 - - - - - - -
17/04:00am 16.8 W 7 11 1020.0 - 0.0 - - - - - - -
17/03:30am 16.9 W 4 6 1020.2 - 0.0 - - - - - - -
17/03:00am 16.7 SW 4 6 1020.4 - 0.0 - - - - - - -
17/02:30am 16.8 CALM 0 0 1020.8 - 0.0 - - - - - - -
17/02:00am 16.8 WNW 1 5 1021.1 - 0.0 - - - - - - -
17/01:30am 16.9 CALM 0 0 1021.6 - 0.0 - - - - - - -
17/01:00am 17.0 CALM 0 0 1022.2 - 0.0 - - - - - - -
17/12:30am 16.8 SW 3 8 1022.6 - 0.0 - - - - - - -
17/12:00am 17.0 NNW 4 5 1022.9 - 0.0 - - - - - - -
 
Date/Time
EDT
Temp
°C
Wind Pressure Rain since
9am
mm
Weather Cloud Vis
km
Sea
Height
m
Swell
Dir  Spd
kts
Gust
kts
hPa Trend Height
m
Period
s
Dir
16/11:30pm 16.9 NNW 5 7 1023.1 - 0.0 - - - - - - -
16/11:00pm 17.0 NNW 6 8 1023.4 - 0.0 - - - - - - -
16/10:30pm 17.1 NNW 7 9 1023.5 - 0.0 - - - - - - -
16/10:00pm 17.1 NNW 7 8 1023.5 - 0.0 - - - - - - -
16/09:30pm 17.0 NNW 7 11 1023.5 - 0.0 - - - - - - -
16/09:00pm 17.3 NNW 8 10 1023.5 - 0.0 - - - - - - -

Other Formats:

Comma delimited format used in spreadsheet applications
http://www.bom.gov.au/fwo/IDV60701/IDV60701.95964.axf

JavaScript Object Notation format (JSON) in row-major order
http://www.bom.gov.au/fwo/IDV60701/IDV60701.95964.json